sensor_id;sensor_type;location;lat;lon;timestamp;P1;durP1;ratioP1;P2;durP2;ratioP2
7545;SDS011;3814;51.454;12.616;2022-11-20T00:01:34;30.70;;;11.63;;
7545;SDS011;3814;51.454;12.616;2022-11-20T00:04:00;30.40;;;11.10;;
7545;SDS011;3814;51.454;12.616;2022-11-20T00:06:26;30.77;;;11.45;;
7545;SDS011;3814;51.454;12.616;2022-11-20T00:08:53;31.83;;;11.38;;
7545;SDS011;3814;51.454;12.616;2022-11-20T00:11:24;32.90;;;11.13;;
7545;SDS011;3814;51.454;12.616;2022-11-20T00:13:51;29.08;;;11.02;;
7545;SDS011;3814;51.454;12.616;2022-11-20T00:16:18;28.83;;;11.30;;
7545;SDS011;3814;51.454;12.616;2022-11-20T00:18:46;29.08;;;10.15;;
7545;SDS011;3814;51.454;12.616;2022-11-20T00:21:13;27.15;;;10.68;;
7545;SDS011;3814;51.454;12.616;2022-11-20T00:23:43;27.73;;;10.40;;
7545;SDS011;3814;51.454;12.616;2022-11-20T00:26:10;28.15;;;10.48;;
7545;SDS011;3814;51.454;12.616;2022-11-20T00:28:37;26.92;;;10.13;;
7545;SDS011;3814;51.454;12.616;2022-11-20T00:33:32;25.70;;;9.63;;
7545;SDS011;3814;51.454;12.616;2022-11-20T00:36:01;31.38;;;10.63;;
7545;SDS011;3814;51.454;12.616;2022-11-20T00:38:27;27.20;;;10.35;;
7545;SDS011;3814;51.454;12.616;2022-11-20T00:40:59;25.67;;;9.73;;
7545;SDS011;3814;51.454;12.616;2022-11-20T00:43:27;25.05;;;9.55;;
7545;SDS011;3814;51.454;12.616;2022-11-20T00:45:59;23.02;;;8.98;;
7545;SDS011;3814;51.454;12.616;2022-11-20T00:48:32;26.45;;;10.05;;
7545;SDS011;3814;51.454;12.616;2022-11-20T00:50:57;26.65;;;10.70;;
7545;SDS011;3814;51.454;12.616;2022-11-20T00:53:22;25.95;;;8.85;;
7545;SDS011;3814;51.454;12.616;2022-11-20T00:55:55;28.48;;;10.52;;
7545;SDS011;3814;51.454;12.616;2022-11-20T00:58:22;27.55;;;10.25;;
7545;SDS011;3814;51.454;12.616;2022-11-20T01:00:48;28.15;;;10.10;;
7545;SDS011;3814;51.454;12.616;2022-11-20T01:03:14;29.50;;;10.40;;
7545;SDS011;3814;51.454;12.616;2022-11-20T01:05:41;26.10;;;10.02;;
7545;SDS011;3814;51.454;12.616;2022-11-20T01:08:06;27.63;;;10.27;;
7545;SDS011;3814;51.454;12.616;2022-11-20T01:10:31;31.20;;;10.10;;
7545;SDS011;3814;51.454;12.616;2022-11-20T01:12:57;28.67;;;10.10;;
7545;SDS011;3814;51.454;12.616;2022-11-20T01:15:41;27.83;;;9.45;;
7545;SDS011;3814;51.454;12.616;2022-11-20T01:18:06;27.10;;;9.57;;
7545;SDS011;3814;51.454;12.616;2022-11-20T01:20:35;29.38;;;10.23;;
7545;SDS011;3814;51.454;12.616;2022-11-20T01:23:01;27.45;;;10.05;;
7545;SDS011;3814;51.454;12.616;2022-11-20T01:25:27;30.25;;;9.70;;
7545;SDS011;3814;51.454;12.616;2022-11-20T01:27:52;29.83;;;10.35;;
7545;SDS011;3814;51.454;12.616;2022-11-20T01:30:18;29.60;;;10.15;;
7545;SDS011;3814;51.454;12.616;2022-11-20T01:32:43;24.95;;;9.20;;
7545;SDS011;3814;51.454;12.616;2022-11-20T01:35:09;27.00;;;9.95;;
7545;SDS011;3814;51.454;12.616;2022-11-20T01:37:35;25.40;;;9.57;;
7545;SDS011;3814;51.454;12.616;2022-11-20T01:40:00;28.17;;;10.38;;
7545;SDS011;3814;51.454;12.616;2022-11-20T01:42:25;30.20;;;10.65;;
7545;SDS011;3814;51.454;12.616;2022-11-20T01:48:13;26.90;;;9.57;;
7545;SDS011;3814;51.454;12.616;2022-11-20T01:50:38;30.45;;;9.55;;
7545;SDS011;3814;51.454;12.616;2022-11-20T01:53:05;28.48;;;10.52;;
7545;SDS011;3814;51.454;12.616;2022-11-20T01:55:37;25.42;;;9.85;;
7545;SDS011;3814;51.454;12.616;2022-11-20T01:58:05;27.55;;;10.10;;
7545;SDS011;3814;51.454;12.616;2022-11-20T02:00:31;25.45;;;9.95;;
7545;SDS011;3814;51.454;12.616;2022-11-20T02:02:57;26.20;;;8.75;;
7545;SDS011;3814;51.454;12.616;2022-11-20T02:07:52;26.65;;;9.57;;
7545;SDS011;3814;51.454;12.616;2022-11-20T02:10:18;28.52;;;9.57;;
7545;SDS011;3814;51.454;12.616;2022-11-20T02:12:43;27.92;;;9.57;;
7545;SDS011;3814;51.454;12.616;2022-11-20T02:15:27;26.20;;;10.00;;
7545;SDS011;3814;51.454;12.616;2022-11-20T02:17:53;28.70;;;10.57;;
7545;SDS011;3814;51.454;12.616;2022-11-20T02:20:18;27.85;;;10.43;;
7545;SDS011;3814;51.454;12.616;2022-11-20T02:25:31;26.13;;;10.65;;
7545;SDS011;3814;51.454;12.616;2022-11-20T02:27:57;29.33;;;11.05;;
7545;SDS011;3814;51.454;12.616;2022-11-20T02:30:22;30.50;;;10.55;;
7545;SDS011;3814;51.454;12.616;2022-11-20T02:32:48;30.55;;;11.02;;
7545;SDS011;3814;51.454;12.616;2022-11-20T02:37:45;25.65;;;9.18;;
7545;SDS011;3814;51.454;12.616;2022-11-20T02:40:12;30.65;;;9.85;;
7545;SDS011;3814;51.454;12.616;2022-11-20T02:42:38;26.52;;;9.68;;
7545;SDS011;3814;51.454;12.616;2022-11-20T02:45:04;29.80;;;9.98;;
7545;SDS011;3814;51.454;12.616;2022-11-20T02:47:30;26.00;;;9.93;;
7545;SDS011;3814;51.454;12.616;2022-11-20T02:49:55;28.40;;;10.52;;
7545;SDS011;3814;51.454;12.616;2022-11-20T02:52:21;27.83;;;10.23;;
7545;SDS011;3814;51.454;12.616;2022-11-20T02:54:46;27.75;;;11.13;;
7545;SDS011;3814;51.454;12.616;2022-11-20T02:57:11;29.65;;;10.60;;
7545;SDS011;3814;51.454;12.616;2022-11-20T02:59:36;29.63;;;10.82;;
7545;SDS011;3814;51.454;12.616;2022-11-20T03:02:02;31.40;;;10.60;;
7545;SDS011;3814;51.454;12.616;2022-11-20T03:04:27;29.85;;;10.13;;
7545;SDS011;3814;51.454;12.616;2022-11-20T03:06:52;26.83;;;10.02;;
7545;SDS011;3814;51.454;12.616;2022-11-20T03:09:18;31.70;;;10.73;;
7545;SDS011;3814;51.454;12.616;2022-11-20T03:11:43;27.25;;;10.50;;
7545;SDS011;3814;51.454;12.616;2022-11-20T03:14:08;32.35;;;11.13;;
7545;SDS011;3814;51.454;12.616;2022-11-20T03:16:34;33.30;;;11.57;;
7545;SDS011;3814;51.454;12.616;2022-11-20T03:18:59;33.45;;;11.88;;
7545;SDS011;3814;51.454;12.616;2022-11-20T03:21:25;25.20;;;10.45;;
7545;SDS011;3814;51.454;12.616;2022-11-20T03:23:50;30.08;;;10.63;;
7545;SDS011;3814;51.454;12.616;2022-11-20T03:26:17;32.60;;;11.13;;
7545;SDS011;3814;51.454;12.616;2022-11-20T03:28:50;31.70;;;11.23;;
7545;SDS011;3814;51.454;12.616;2022-11-20T03:31:19;31.23;;;10.02;;
7545;SDS011;3814;51.454;12.616;2022-11-20T03:33:45;30.27;;;10.32;;
7545;SDS011;3814;51.454;12.616;2022-11-20T03:36:12;31.42;;;11.35;;
7545;SDS011;3814;51.454;12.616;2022-11-20T03:38:38;33.30;;;10.50;;
7545;SDS011;3814;51.454;12.616;2022-11-20T03:41:07;27.77;;;9.73;;
7545;SDS011;3814;51.454;12.616;2022-11-20T03:43:34;27.20;;;10.13;;
7545;SDS011;3814;51.454;12.616;2022-11-20T03:45:59;32.15;;;11.18;;
7545;SDS011;3814;51.454;12.616;2022-11-20T03:48:25;36.20;;;11.18;;
7545;SDS011;3814;51.454;12.616;2022-11-20T03:50:51;29.02;;;11.00;;
7545;SDS011;3814;51.454;12.616;2022-11-20T03:53:17;34.05;;;11.07;;
7545;SDS011;3814;51.454;12.616;2022-11-20T03:55:43;33.13;;;10.02;;
7545;SDS011;3814;51.454;12.616;2022-11-20T03:58:08;33.20;;;11.00;;
7545;SDS011;3814;51.454;12.616;2022-11-20T04:00:34;33.92;;;11.48;;
7545;SDS011;3814;51.454;12.616;2022-11-20T04:03:00;30.80;;;11.23;;
7545;SDS011;3814;51.454;12.616;2022-11-20T04:05:26;32.38;;;11.48;;
7545;SDS011;3814;51.454;12.616;2022-11-20T04:07:52;32.65;;;12.18;;
7545;SDS011;3814;51.454;12.616;2022-11-20T04:10:17;32.10;;;11.02;;
7545;SDS011;3814;51.454;12.616;2022-11-20T04:12:42;31.65;;;11.40;;
7545;SDS011;3814;51.454;12.616;2022-11-20T04:15:08;37.15;;;11.68;;
7545;SDS011;3814;51.454;12.616;2022-11-20T04:17:34;36.22;;;11.15;;
7545;SDS011;3814;51.454;12.616;2022-11-20T04:19:59;26.90;;;10.13;;
7545;SDS011;3814;51.454;12.616;2022-11-20T04:22:24;34.28;;;11.55;;
7545;SDS011;3814;51.454;12.616;2022-11-20T04:24:50;32.85;;;10.77;;
7545;SDS011;3814;51.454;12.616;2022-11-20T04:27:15;34.53;;;11.65;;
7545;SDS011;3814;51.454;12.616;2022-11-20T04:29:40;34.65;;;11.60;;
7545;SDS011;3814;51.454;12.616;2022-11-20T04:32:06;32.90;;;11.10;;
7545;SDS011;3814;51.454;12.616;2022-11-20T04:34:31;31.15;;;10.43;;
7545;SDS011;3814;51.454;12.616;2022-11-20T04:36:56;33.05;;;11.20;;
7545;SDS011;3814;51.454;12.616;2022-11-20T04:39:21;31.40;;;10.65;;
7545;SDS011;3814;51.454;12.616;2022-11-20T04:41:47;35.95;;;11.98;;
7545;SDS011;3814;51.454;12.616;2022-11-20T04:44:12;36.50;;;11.75;;
7545;SDS011;3814;51.454;12.616;2022-11-20T04:46:38;32.50;;;11.23;;
7545;SDS011;3814;51.454;12.616;2022-11-20T04:49:05;29.25;;;10.57;;
7545;SDS011;3814;51.454;12.616;2022-11-20T04:51:31;32.28;;;11.90;;
7545;SDS011;3814;51.454;12.616;2022-11-20T04:53:57;30.38;;;10.15;;
7545;SDS011;3814;51.454;12.616;2022-11-20T04:56:22;32.90;;;12.02;;
7545;SDS011;3814;51.454;12.616;2022-11-20T04:58:48;34.15;;;11.60;;
7545;SDS011;3814;51.454;12.616;2022-11-20T05:01:20;36.50;;;11.60;;
7545;SDS011;3814;51.454;12.616;2022-11-20T05:03:47;35.47;;;11.82;;
7545;SDS011;3814;51.454;12.616;2022-11-20T05:06:13;37.75;;;12.13;;
7545;SDS011;3814;51.454;12.616;2022-11-20T05:08:40;33.55;;;11.35;;
7545;SDS011;3814;51.454;12.616;2022-11-20T05:11:09;36.97;;;11.80;;
7545;SDS011;3814;51.454;12.616;2022-11-20T05:13:36;34.63;;;12.15;;
7545;SDS011;3814;51.454;12.616;2022-11-20T05:16:02;35.90;;;11.45;;
7545;SDS011;3814;51.454;12.616;2022-11-20T05:18:32;33.72;;;11.60;;
7545;SDS011;3814;51.454;12.616;2022-11-20T05:20:58;39.78;;;11.75;;
7545;SDS011;3814;51.454;12.616;2022-11-20T05:23:24;32.15;;;11.70;;
7545;SDS011;3814;51.454;12.616;2022-11-20T05:25:53;35.15;;;12.52;;
7545;SDS011;3814;51.454;12.616;2022-11-20T05:28:19;36.78;;;11.88;;
7545;SDS011;3814;51.454;12.616;2022-11-20T05:30:45;34.80;;;12.23;;
7545;SDS011;3814;51.454;12.616;2022-11-20T05:33:10;32.83;;;11.25;;
7545;SDS011;3814;51.454;12.616;2022-11-20T05:35:35;33.53;;;11.40;;
7545;SDS011;3814;51.454;12.616;2022-11-20T05:38:01;35.72;;;11.48;;
7545;SDS011;3814;51.454;12.616;2022-11-20T05:40:26;32.05;;;10.27;;
7545;SDS011;3814;51.454;12.616;2022-11-20T05:42:51;32.47;;;11.38;;
7545;SDS011;3814;51.454;12.616;2022-11-20T05:45:17;32.92;;;11.63;;
7545;SDS011;3814;51.454;12.616;2022-11-20T05:47:42;34.72;;;11.13;;
7545;SDS011;3814;51.454;12.616;2022-11-20T05:50:07;30.75;;;9.90;;
7545;SDS011;3814;51.454;12.616;2022-11-20T05:52:33;32.80;;;10.65;;
7545;SDS011;3814;51.454;12.616;2022-11-20T05:54:58;33.90;;;10.63;;
7545;SDS011;3814;51.454;12.616;2022-11-20T05:57:23;32.08;;;10.68;;
7545;SDS011;3814;51.454;12.616;2022-11-20T05:59:48;33.28;;;10.18;;
7545;SDS011;3814;51.454;12.616;2022-11-20T06:02:14;28.08;;;9.98;;
7545;SDS011;3814;51.454;12.616;2022-11-20T06:04:39;36.63;;;11.07;;
7545;SDS011;3814;51.454;12.616;2022-11-20T06:07:05;33.08;;;11.32;;
7545;SDS011;3814;51.454;12.616;2022-11-20T06:09:31;29.98;;;9.90;;
7545;SDS011;3814;51.454;12.616;2022-11-20T06:11:56;36.30;;;12.43;;
7545;SDS011;3814;51.454;12.616;2022-11-20T06:14:22;34.80;;;9.73;;
7545;SDS011;3814;51.454;12.616;2022-11-20T06:16:47;32.92;;;11.07;;
7545;SDS011;3814;51.454;12.616;2022-11-20T06:19:12;28.70;;;9.93;;
7545;SDS011;3814;51.454;12.616;2022-11-20T06:21:38;34.80;;;10.45;;
7545;SDS011;3814;51.454;12.616;2022-11-20T06:24:03;31.02;;;10.25;;
7545;SDS011;3814;51.454;12.616;2022-11-20T06:26:29;36.10;;;11.18;;
7545;SDS011;3814;51.454;12.616;2022-11-20T06:28:55;35.17;;;11.40;;
7545;SDS011;3814;51.454;12.616;2022-11-20T06:31:22;29.98;;;10.70;;
7545;SDS011;3814;51.454;12.616;2022-11-20T06:33:48;32.38;;;10.90;;
7545;SDS011;3814;51.454;12.616;2022-11-20T06:36:15;36.15;;;10.82;;
7545;SDS011;3814;51.454;12.616;2022-11-20T06:38:42;29.02;;;9.98;;
7545;SDS011;3814;51.454;12.616;2022-11-20T06:41:10;34.85;;;11.02;;
7545;SDS011;3814;51.454;12.616;2022-11-20T06:43:43;29.45;;;10.13;;
7545;SDS011;3814;51.454;12.616;2022-11-20T06:46:09;34.50;;;11.73;;
7545;SDS011;3814;51.454;12.616;2022-11-20T06:48:35;31.30;;;10.05;;
7545;SDS011;3814;51.454;12.616;2022-11-20T06:51:02;35.25;;;11.30;;
7545;SDS011;3814;51.454;12.616;2022-11-20T06:53:29;32.20;;;11.18;;
7545;SDS011;3814;51.454;12.616;2022-11-20T06:55:55;40.33;;;12.35;;
7545;SDS011;3814;51.454;12.616;2022-11-20T06:58:21;32.53;;;10.40;;
7545;SDS011;3814;51.454;12.616;2022-11-20T07:00:46;29.00;;;10.30;;
7545;SDS011;3814;51.454;12.616;2022-11-20T07:03:12;36.20;;;11.45;;
7545;SDS011;3814;51.454;12.616;2022-11-20T07:05:37;33.67;;;11.05;;
7545;SDS011;3814;51.454;12.616;2022-11-20T07:08:03;31.17;;;10.63;;
7545;SDS011;3814;51.454;12.616;2022-11-20T07:10:30;32.80;;;10.43;;
7545;SDS011;3814;51.454;12.616;2022-11-20T07:12:56;37.72;;;11.77;;
7545;SDS011;3814;51.454;12.616;2022-11-20T07:15:22;36.58;;;10.65;;
7545;SDS011;3814;51.454;12.616;2022-11-20T07:17:48;37.30;;;11.57;;
7545;SDS011;3814;51.454;12.616;2022-11-20T07:20:13;34.92;;;11.35;;
7545;SDS011;3814;51.454;12.616;2022-11-20T07:22:39;36.20;;;11.52;;
7545;SDS011;3814;51.454;12.616;2022-11-20T07:25:05;34.95;;;10.85;;
7545;SDS011;3814;51.454;12.616;2022-11-20T07:27:31;36.15;;;11.93;;
7545;SDS011;3814;51.454;12.616;2022-11-20T07:29:56;33.58;;;10.95;;
7545;SDS011;3814;51.454;12.616;2022-11-20T07:32:22;38.05;;;12.35;;
7545;SDS011;3814;51.454;12.616;2022-11-20T07:34:47;32.95;;;11.48;;
7545;SDS011;3814;51.454;12.616;2022-11-20T07:37:13;35.08;;;11.45;;
7545;SDS011;3814;51.454;12.616;2022-11-20T07:39:38;34.90;;;11.38;;
7545;SDS011;3814;51.454;12.616;2022-11-20T07:42:04;37.65;;;12.48;;
7545;SDS011;3814;51.454;12.616;2022-11-20T07:44:29;33.92;;;12.27;;
7545;SDS011;3814;51.454;12.616;2022-11-20T07:46:54;33.17;;;10.90;;
7545;SDS011;3814;51.454;12.616;2022-11-20T07:49:20;34.20;;;11.73;;
7545;SDS011;3814;51.454;12.616;2022-11-20T07:51:45;33.67;;;10.88;;
7545;SDS011;3814;51.454;12.616;2022-11-20T07:54:10;34.10;;;9.93;;
7545;SDS011;3814;51.454;12.616;2022-11-20T07:56:36;33.67;;;12.05;;
7545;SDS011;3814;51.454;12.616;2022-11-20T07:59:01;38.03;;;10.65;;
7545;SDS011;3814;51.454;12.616;2022-11-20T08:01:28;36.75;;;12.85;;
7545;SDS011;3814;51.454;12.616;2022-11-20T08:03:53;41.17;;;13.48;;
7545;SDS011;3814;51.454;12.616;2022-11-20T08:06:19;45.40;;;13.90;;
7545;SDS011;3814;51.454;12.616;2022-11-20T08:08:45;59.03;;;18.63;;
7545;SDS011;3814;51.454;12.616;2022-11-20T08:11:10;37.38;;;13.82;;
7545;SDS011;3814;51.454;12.616;2022-11-20T08:14:01;35.13;;;12.23;;
7545;SDS011;3814;51.454;12.616;2022-11-20T08:16:48;32.28;;;11.48;;
7545;SDS011;3814;51.454;12.616;2022-11-20T08:19:14;30.52;;;10.98;;
7545;SDS011;3814;51.454;12.616;2022-11-20T08:21:43;30.13;;;11.07;;
7545;SDS011;3814;51.454;12.616;2022-11-20T08:24:09;28.13;;;10.73;;
7545;SDS011;3814;51.454;12.616;2022-11-20T08:26:35;27.83;;;10.65;;
7545;SDS011;3814;51.454;12.616;2022-11-20T08:29:01;27.05;;;10.10;;
7545;SDS011;3814;51.454;12.616;2022-11-20T08:31:27;27.73;;;10.65;;
7545;SDS011;3814;51.454;12.616;2022-11-20T08:33:52;31.42;;;11.23;;
7545;SDS011;3814;51.454;12.616;2022-11-20T08:36:18;28.65;;;10.63;;
7545;SDS011;3814;51.454;12.616;2022-11-20T08:38:48;30.85;;;11.77;;
7545;SDS011;3814;51.454;12.616;2022-11-20T08:41:17;36.13;;;12.93;;
7545;SDS011;3814;51.454;12.616;2022-11-20T08:43:49;35.70;;;13.18;;
7545;SDS011;3814;51.454;12.616;2022-11-20T08:46:15;32.75;;;11.82;;
7545;SDS011;3814;51.454;12.616;2022-11-20T08:48:41;33.33;;;12.52;;
7545;SDS011;3814;51.454;12.616;2022-11-20T08:51:07;32.72;;;11.73;;
7545;SDS011;3814;51.454;12.616;2022-11-20T08:53:32;33.33;;;12.10;;
7545;SDS011;3814;51.454;12.616;2022-11-20T08:55:57;29.70;;;11.00;;
7545;SDS011;3814;51.454;12.616;2022-11-20T08:58:23;29.83;;;11.35;;
7545;SDS011;3814;51.454;12.616;2022-11-20T09:00:49;28.63;;;11.57;;
7545;SDS011;3814;51.454;12.616;2022-11-20T09:03:14;30.98;;;12.27;;
7545;SDS011;3814;51.454;12.616;2022-11-20T09:05:39;30.00;;;12.10;;
7545;SDS011;3814;51.454;12.616;2022-11-20T09:08:05;30.77;;;11.88;;
7545;SDS011;3814;51.454;12.616;2022-11-20T09:10:30;30.85;;;12.10;;
7545;SDS011;3814;51.454;12.616;2022-11-20T09:12:56;29.38;;;11.77;;
7545;SDS011;3814;51.454;12.616;2022-11-20T09:15:21;30.23;;;11.23;;
7545;SDS011;3814;51.454;12.616;2022-11-20T09:17:54;29.80;;;11.70;;
7545;SDS011;3814;51.454;12.616;2022-11-20T09:20:20;27.38;;;11.82;;
7545;SDS011;3814;51.454;12.616;2022-11-20T09:22:46;32.90;;;12.90;;
7545;SDS011;3814;51.454;12.616;2022-11-20T09:25:11;30.13;;;12.65;;
7545;SDS011;3814;51.454;12.616;2022-11-20T09:27:37;33.95;;;12.70;;
7545;SDS011;3814;51.454;12.616;2022-11-20T09:30:02;28.42;;;11.65;;
7545;SDS011;3814;51.454;12.616;2022-11-20T09:32:28;30.70;;;12.80;;
7545;SDS011;3814;51.454;12.616;2022-11-20T09:34:53;32.50;;;13.32;;
7545;SDS011;3814;51.454;12.616;2022-11-20T09:37:19;28.63;;;12.68;;
7545;SDS011;3814;51.454;12.616;2022-11-20T09:39:44;28.83;;;12.50;;
7545;SDS011;3814;51.454;12.616;2022-11-20T09:42:27;29.02;;;11.90;;
7545;SDS011;3814;51.454;12.616;2022-11-20T09:45:05;25.98;;;11.13;;
7545;SDS011;3814;51.454;12.616;2022-11-20T09:50:43;25.40;;;11.18;;
7545;SDS011;3814;51.454;12.616;2022-11-20T09:55:44;28.45;;;11.43;;
7545;SDS011;3814;51.454;12.616;2022-11-20T09:58:28;26.65;;;11.70;;
7545;SDS011;3814;51.454;12.616;2022-11-20T10:01:10;25.58;;;10.32;;
7545;SDS011;3814;51.454;12.616;2022-11-20T10:06:47;24.70;;;10.80;;
7545;SDS011;3814;51.454;12.616;2022-11-20T10:09:29;25.13;;;10.82;;
7545;SDS011;3814;51.454;12.616;2022-11-20T10:17:38;24.30;;;10.23;;
7545;SDS011;3814;51.454;12.616;2022-11-20T10:20:21;25.45;;;10.60;;
7545;SDS011;3814;51.454;12.616;2022-11-20T10:22:58;24.58;;;10.13;;
7545;SDS011;3814;51.454;12.616;2022-11-20T10:25:43;28.15;;;11.63;;
7545;SDS011;3814;51.454;12.616;2022-11-20T10:28:19;25.60;;;11.70;;
7545;SDS011;3814;51.454;12.616;2022-11-20T10:30:53;26.88;;;11.50;;
7545;SDS011;3814;51.454;12.616;2022-11-20T10:33:22;25.33;;;10.82;;
7545;SDS011;3814;51.454;12.616;2022-11-20T10:35:54;26.55;;;10.98;;
7545;SDS011;3814;51.454;12.616;2022-11-20T10:38:33;26.58;;;10.93;;
7545;SDS011;3814;51.454;12.616;2022-11-20T10:41:02;27.70;;;11.05;;
7545;SDS011;3814;51.454;12.616;2022-11-20T10:43:46;27.85;;;10.73;;
7545;SDS011;3814;51.454;12.616;2022-11-20T10:46:22;29.60;;;11.50;;
7545;SDS011;3814;51.454;12.616;2022-11-20T10:48:48;31.35;;;11.68;;
7545;SDS011;3814;51.454;12.616;2022-11-20T10:54:11;25.70;;;10.25;;
7545;SDS011;3814;51.454;12.616;2022-11-20T10:56:42;28.85;;;10.30;;
7545;SDS011;3814;51.454;12.616;2022-11-20T10:59:26;23.70;;;9.15;;
7545;SDS011;3814;51.454;12.616;2022-11-20T11:01:58;28.55;;;10.65;;
7545;SDS011;3814;51.454;12.616;2022-11-20T11:04:28;27.48;;;9.95;;
7545;SDS011;3814;51.454;12.616;2022-11-20T11:06:54;25.70;;;9.23;;
7545;SDS011;3814;51.454;12.616;2022-11-20T11:09:37;28.88;;;10.40;;
7545;SDS011;3814;51.454;12.616;2022-11-20T11:12:08;26.77;;;9.90;;
7545;SDS011;3814;51.454;12.616;2022-11-20T11:14:43;25.15;;;9.45;;
7545;SDS011;3814;51.454;12.616;2022-11-20T11:17:21;27.50;;;9.27;;
7545;SDS011;3814;51.454;12.616;2022-11-20T11:20:02;24.95;;;9.27;;
7545;SDS011;3814;51.454;12.616;2022-11-20T11:22:45;29.35;;;10.00;;
7545;SDS011;3814;51.454;12.616;2022-11-20T11:28:03;24.40;;;9.55;;
7545;SDS011;3814;51.454;12.616;2022-11-20T11:30:45;22.85;;;8.90;;
7545;SDS011;3814;51.454;12.616;2022-11-20T11:33:29;24.45;;;8.85;;
7545;SDS011;3814;51.454;12.616;2022-11-20T11:36:00;20.77;;;8.55;;
7545;SDS011;3814;51.454;12.616;2022-11-20T11:38:29;25.95;;;9.32;;
7545;SDS011;3814;51.454;12.616;2022-11-20T11:41:03;23.10;;;9.35;;
7545;SDS011;3814;51.454;12.616;2022-11-20T11:43:33;24.13;;;9.13;;
7545;SDS011;3814;51.454;12.616;2022-11-20T11:46:31;24.50;;;8.57;;
7545;SDS011;3814;51.454;12.616;2022-11-20T11:49:01;27.17;;;10.15;;
7545;SDS011;3814;51.454;12.616;2022-11-20T11:57:00;26.30;;;10.35;;
7545;SDS011;3814;51.454;12.616;2022-11-20T12:00:03;24.05;;;9.48;;
7545;SDS011;3814;51.454;12.616;2022-11-20T12:05:02;27.40;;;10.43;;
7545;SDS011;3814;51.454;12.616;2022-11-20T12:07:41;26.88;;;9.95;;
7545;SDS011;3814;51.454;12.616;2022-11-20T12:10:19;27.90;;;10.57;;
7545;SDS011;3814;51.454;12.616;2022-11-20T12:12:48;26.98;;;10.57;;
7545;SDS011;3814;51.454;12.616;2022-11-20T12:15:22;30.65;;;11.60;;
7545;SDS011;3814;51.454;12.616;2022-11-20T12:17:51;30.52;;;11.75;;
7545;SDS011;3814;51.454;12.616;2022-11-20T12:20:17;29.50;;;11.45;;
7545;SDS011;3814;51.454;12.616;2022-11-20T12:22:49;33.70;;;11.70;;
7545;SDS011;3814;51.454;12.616;2022-11-20T12:25:29;26.08;;;9.30;;
7545;SDS011;3814;51.454;12.616;2022-11-20T12:28:18;35.30;;;13.48;;
7545;SDS011;3814;51.454;12.616;2022-11-20T12:39:07;29.60;;;10.43;;
7545;SDS011;3814;51.454;12.616;2022-11-20T12:52:47;18.70;;;6.97;;
7545;SDS011;3814;51.454;12.616;2022-11-20T12:55:28;17.48;;;6.88;;
7545;SDS011;3814;51.454;12.616;2022-11-20T12:58:05;17.88;;;7.25;;
7545;SDS011;3814;51.454;12.616;2022-11-20T13:00:38;16.40;;;6.22;;
7545;SDS011;3814;51.454;12.616;2022-11-20T13:08:27;16.23;;;6.85;;
7545;SDS011;3814;51.454;12.616;2022-11-20T13:11:14;18.88;;;7.25;;
7545;SDS011;3814;51.454;12.616;2022-11-20T13:16:26;18.03;;;6.60;;
7545;SDS011;3814;51.454;12.616;2022-11-20T13:19:03;19.13;;;6.78;;
7545;SDS011;3814;51.454;12.616;2022-11-20T13:21:37;16.88;;;6.97;;
7545;SDS011;3814;51.454;12.616;2022-11-20T13:24:07;17.42;;;6.68;;
7545;SDS011;3814;51.454;12.616;2022-11-20T13:26:48;18.90;;;7.32;;
7545;SDS011;3814;51.454;12.616;2022-11-20T13:29:24;19.00;;;8.23;;
7545;SDS011;3814;51.454;12.616;2022-11-20T13:31:49;17.02;;;7.07;;
7545;SDS011;3814;51.454;12.616;2022-11-20T13:34:23;20.70;;;8.00;;
7545;SDS011;3814;51.454;12.616;2022-11-20T13:36:51;20.20;;;8.13;;
7545;SDS011;3814;51.454;12.616;2022-11-20T13:39:27;22.70;;;9.40;;
7545;SDS011;3814;51.454;12.616;2022-11-20T13:41:54;20.45;;;7.93;;
7545;SDS011;3814;51.454;12.616;2022-11-20T13:47:02;17.17;;;7.13;;
7545;SDS011;3814;51.454;12.616;2022-11-20T13:49:32;16.90;;;6.60;;
7545;SDS011;3814;51.454;12.616;2022-11-20T13:52:04;16.98;;;7.22;;
7545;SDS011;3814;51.454;12.616;2022-11-20T13:57:53;19.40;;;7.80;;
7545;SDS011;3814;51.454;12.616;2022-11-20T14:00:28;17.15;;;7.47;;
7545;SDS011;3814;51.454;12.616;2022-11-20T14:05:31;17.52;;;7.13;;
7545;SDS011;3814;51.454;12.616;2022-11-20T14:10:27;19.50;;;6.68;;
7545;SDS011;3814;51.454;12.616;2022-11-20T14:12:52;18.10;;;7.22;;
7545;SDS011;3814;51.454;12.616;2022-11-20T14:15:32;22.80;;;8.68;;
7545;SDS011;3814;51.454;12.616;2022-11-20T14:17:58;19.85;;;8.07;;
7545;SDS011;3814;51.454;12.616;2022-11-20T14:20:25;17.60;;;7.13;;
7545;SDS011;3814;51.454;12.616;2022-11-20T14:22:52;17.02;;;7.43;;
7545;SDS011;3814;51.454;12.616;2022-11-20T14:28:02;17.33;;;6.60;;
7545;SDS011;3814;51.454;12.616;2022-11-20T14:30:29;18.85;;;7.28;;
7545;SDS011;3814;51.454;12.616;2022-11-20T14:33:03;17.15;;;6.18;;
7545;SDS011;3814;51.454;12.616;2022-11-20T14:35:29;15.95;;;6.13;;
7545;SDS011;3814;51.454;12.616;2022-11-20T14:37:56;17.60;;;6.57;;
7545;SDS011;3814;51.454;12.616;2022-11-20T14:42:54;17.38;;;6.93;;
7545;SDS011;3814;51.454;12.616;2022-11-20T14:45:20;16.88;;;6.47;;
7545;SDS011;3814;51.454;12.616;2022-11-20T14:47:46;16.17;;;6.65;;
7545;SDS011;3814;51.454;12.616;2022-11-20T14:50:16;17.50;;;6.55;;
7545;SDS011;3814;51.454;12.616;2022-11-20T14:52:58;15.38;;;6.38;;
7545;SDS011;3814;51.454;12.616;2022-11-20T14:55:25;14.90;;;5.80;;
7545;SDS011;3814;51.454;12.616;2022-11-20T14:57:55;24.98;;;10.02;;
7545;SDS011;3814;51.454;12.616;2022-11-20T15:00:21;22.55;;;9.63;;
7545;SDS011;3814;51.454;12.616;2022-11-20T15:02:48;19.15;;;7.45;;
7545;SDS011;3814;51.454;12.616;2022-11-20T15:05:14;18.50;;;7.32;;
7545;SDS011;3814;51.454;12.616;2022-11-20T15:07:42;17.40;;;6.35;;
7545;SDS011;3814;51.454;12.616;2022-11-20T15:10:26;14.73;;;6.28;;
7545;SDS011;3814;51.454;12.616;2022-11-20T15:18:13;18.85;;;7.78;;
7545;SDS011;3814;51.454;12.616;2022-11-20T15:20:39;15.85;;;7.07;;
7545;SDS011;3814;51.454;12.616;2022-11-20T15:23:09;17.10;;;7.70;;
7545;SDS011;3814;51.454;12.616;2022-11-20T15:25:36;14.82;;;6.72;;
7545;SDS011;3814;51.454;12.616;2022-11-20T15:28:04;18.58;;;7.55;;
7545;SDS011;3814;51.454;12.616;2022-11-20T15:30:29;17.80;;;6.90;;
7545;SDS011;3814;51.454;12.616;2022-11-20T15:32:55;16.65;;;7.13;;
7545;SDS011;3814;51.454;12.616;2022-11-20T15:35:20;17.40;;;6.95;;
7545;SDS011;3814;51.454;12.616;2022-11-20T15:37:45;18.80;;;7.53;;
7545;SDS011;3814;51.454;12.616;2022-11-20T15:40:11;16.55;;;6.68;;
7545;SDS011;3814;51.454;12.616;2022-11-20T15:42:36;16.85;;;6.60;;
7545;SDS011;3814;51.454;12.616;2022-11-20T15:45:02;19.40;;;7.55;;
7545;SDS011;3814;51.454;12.616;2022-11-20T15:47:28;15.95;;;7.57;;
7545;SDS011;3814;51.454;12.616;2022-11-20T15:49:55;18.23;;;6.57;;
7545;SDS011;3814;51.454;12.616;2022-11-20T15:52:21;13.55;;;5.65;;
7545;SDS011;3814;51.454;12.616;2022-11-20T15:54:46;15.55;;;5.45;;
7545;SDS011;3814;51.454;12.616;2022-11-20T15:57:11;14.77;;;6.07;;
7545;SDS011;3814;51.454;12.616;2022-11-20T15:59:37;13.45;;;5.57;;
7545;SDS011;3814;51.454;12.616;2022-11-20T16:02:09;16.70;;;6.47;;
7545;SDS011;3814;51.454;12.616;2022-11-20T16:07:00;13.15;;;5.50;;
7545;SDS011;3814;51.454;12.616;2022-11-20T16:09:26;14.13;;;6.03;;
7545;SDS011;3814;51.454;12.616;2022-11-20T16:11:51;17.38;;;6.82;;
7545;SDS011;3814;51.454;12.616;2022-11-20T16:14:16;22.13;;;8.48;;
7545;SDS011;3814;51.454;12.616;2022-11-20T16:17:00;18.10;;;7.32;;
7545;SDS011;3814;51.454;12.616;2022-11-20T16:19:26;17.52;;;6.85;;